Time;durP1;ratioP1;P1;durP2;ratioP2;P2;SDS_P1;SDS_P2;PMS_P1;PMS_P2;Temp;Humidity;BMP_temperature;BMP_pressure;BME280_temperature;BME280_humidity;BME280_pressure;Samples;Min_cycle;Max_cycle;Signal;HPM_P1;HPM_P2
2022/01/27 00:00:43;;;;;;;29.25;12.98;;;0.20;68.50;;;;;;5076964;28;20476;-19
2022/01/27 00:06:12;;;;;;;16.92;7.90;;;0.30;68.10;;;;;;5074577;28;20488;-19
2022/01/27 00:11:11;;;;;;;51.30;22.33;;;0.30;68.00;;;;;;5074930;28;20492;-19
2022/01/27 00:13:58;;;;;;;74.05;36.95;;;0.30;68.10;;;;;;5074535;28;20476;-20
2022/01/27 00:16:28;;;;;;;85.72;42.35;;;0.30;68.60;;;;;;5074098;28;20025;-20
2022/01/27 00:18:55;;;;;;;58.35;27.02;;;0.30;68.70;;;;;;5074106;28;20032;-19
2022/01/27 00:21:27;;;;;;;23.77;10.18;;;0.30;68.80;;;;;;5074554;28;20044;-19
2022/01/27 00:23:54;;;;;;;23.10;10.23;;;0.30;68.30;;;;;;5074300;28;20028;-19
2022/01/27 00:26:21;;;;;;;44.05;19.48;;;0.30;68.20;;;;;;5073992;28;20132;-19
2022/01/27 00:28:49;;;;;;;39.03;17.92;;;0.30;68.20;;;;;;5074171;28;20037;-19
2022/01/27 00:31:17;;;;;;;54.15;24.23;;;0.30;68.10;;;;;;5074036;28;20611;-19
2022/01/27 00:33:44;;;;;;;34.45;14.57;;;0.20;68.10;;;;;;5074162;28;20032;-19
2022/01/27 00:36:12;;;;;;;46.45;21.88;;;0.20;68.20;;;;;;5074038;28;20025;-18
2022/01/27 00:38:39;;;;;;;42.67;19.27;;;0.20;68.20;;;;;;5074020;28;20028;-19
2022/01/27 00:41:05;;;;;;;83.07;37.72;;;0.20;68.40;;;;;;5076198;28;20044;-19
2022/01/27 00:43:31;;;;;;;83.70;37.72;;;0.20;69.50;;;;;;5076132;28;20028;-19
2022/01/27 00:45:57;;;;;;;48.75;21.00;;;0.10;70.20;;;;;;5075834;28;20028;-19
2022/01/27 00:48:23;;;;;;;33.38;14.73;;;0.20;69.80;;;;;;5074448;28;20028;-19
2022/01/27 00:50:56;;;;;;;35.05;18.52;;;0.20;69.40;;;;;;5075834;28;20350;-19
2022/01/27 00:53:39;;;;;;;58.88;22.83;;;0.20;69.40;;;;;;5075857;28;20028;-19
2022/01/27 00:56:22;;;;;;;17.48;8.27;;;0.30;69.10;;;;;;5075797;28;20103;-19
2022/01/27 01:01:30;;;;;;;24.08;9.95;;;0.30;68.80;;;;;;5075654;28;20028;-19
2022/01/27 01:04:00;;;;;;;26.77;12.63;;;0.40;68.70;;;;;;5075993;28;20123;-19
2022/01/27 01:06:41;;;;;;;18.92;8.77;;;0.40;68.50;;;;;;5075127;28;20493;-19
2022/01/27 01:12:24;;;;;;;45.92;19.50;;;0.40;68.20;;;;;;5076115;28;20050;-19
2022/01/27 01:14:51;;;;;;;17.33;7.93;;;0.40;68.20;;;;;;5075568;28;20497;-20
2022/01/27 01:33:09;;;;;;;37.50;18.92;;;0.30;69.50;;;;;;5075179;28;20036;-20
2022/01/27 01:36:34;;;;;;;71.20;35.65;;;0.20;68.80;;;;;;5075351;28;20028;-19
2022/01/27 01:38:25;;;;;;;28.23;13.23;;;0.20;69.00;;;;;;5074462;28;20033;-19
2022/01/27 01:40:53;;;;;;;69.05;30.70;;;0.20;69.40;;;;;;5075141;28;20043;-19
2022/01/27 01:43:20;;;;;;;73.43;31.67;;;0.20;69.90;;;;;;5074878;28;20563;-19
2022/01/27 01:45:47;;;;;;;75.22;32.78;;;0.20;69.60;;;;;;5073512;28;20032;-19
2022/01/27 01:48:16;;;;;;;77.53;33.70;;;0.10;70.00;;;;;;5074562;28;20031;-20
2022/01/27 01:50:43;;;;;;;53.28;25.30;;;0.10;70.10;;;;;;5073441;28;20094;-19
2022/01/27 01:53:09;;;;;;;42.75;20.42;;;0.10;70.20;;;;;;5074662;28;20475;-19
2022/01/27 01:55:35;;;;;;;31.70;16.40;;;0.10;69.70;;;;;;5074945;28;20059;-19
2022/01/27 01:58:02;;;;;;;46.35;23.77;;;0.10;69.50;;;;;;5074589;28;20463;-19
2022/01/27 02:00:29;;;;;;;24.98;11.70;;;0.20;69.60;;;;;;5074171;28;20024;-19
2022/01/27 02:02:55;;;;;;;39.58;17.60;;;0.20;69.30;;;;;;5074480;28;20392;-20
2022/01/27 02:05:27;;;;;;;27.25;13.52;;;0.30;69.50;;;;;;5075058;28;20070;-18
2022/01/27 02:08:35;;;;;;;36.97;19.00;;;0.30;69.20;;;;;;5074727;28;20112;-19
2022/01/27 02:19:13;;;;;;;60.17;28.92;;;0.40;68.70;;;;;;5074172;28;20071;-19
2022/01/27 02:21:48;;;;;;;34.47;19.00;;;0.40;68.70;;;;;;5073978;28;20028;-20
2022/01/27 02:24:16;;;;;;;44.47;20.27;;;0.40;68.50;;;;;;5073941;28;20456;-19
2022/01/27 02:26:42;;;;;;;66.85;36.30;;;0.40;68.80;;;;;;5074175;28;20047;-19
2022/01/27 02:29:10;;;;;;;86.32;44.10;;;0.40;68.90;;;;;;5073927;28;20070;-19
2022/01/27 02:31:36;;;;;;;82.53;41.25;;;0.40;70.30;;;;;;5074085;28;20048;-19
2022/01/27 02:34:05;;;;;;;64.03;34.35;;;0.30;70.70;;;;;;5073848;28;20028;-19
2022/01/27 02:36:33;;;;;;;53.08;28.10;;;0.30;69.90;;;;;;5073588;28;20028;-19
2022/01/27 02:39:00;;;;;;;37.97;18.52;;;0.30;69.70;;;;;;5074034;28;20024;-19
2022/01/27 02:41:28;;;;;;;41.97;20.08;;;0.20;69.50;;;;;;5073980;28;20024;-19
2022/01/27 02:43:56;;;;;;;28.55;13.90;;;0.20;69.40;;;;;;5073999;28;20036;-19
2022/01/27 02:46:36;;;;;;;58.63;32.78;;;0.20;69.20;;;;;;5073333;28;20477;-19
2022/01/27 02:49:03;;;;;;;54.78;27.67;;;0.10;69.60;;;;;;5072418;28;20028;-19
2022/01/27 02:51:29;;;;;;;95.13;48.05;;;0.10;70.00;;;;;;5073865;28;20028;-19
2022/01/27 02:53:58;;;;;;;52.25;25.30;;;0.10;70.50;;;;;;5072257;28;20024;-19
2022/01/27 02:56:24;;;;;;;52.25;27.10;;;0.10;70.80;;;;;;5073542;28;20047;-20
2022/01/27 02:58:50;;;;;;;38.47;21.77;;;0.00;70.50;;;;;;5072277;28;20481;-19
2022/01/27 03:01:22;;;;;;;37.63;19.65;;;0.10;70.20;;;;;;5073245;28;20127;-19
2022/01/27 03:03:48;;;;;;;52.50;26.15;;;0.10;69.70;;;;;;5073671;28;20430;-19
2022/01/27 03:06:15;;;;;;;74.53;36.72;;;0.10;69.80;;;;;;5073433;28;20036;-19
2022/01/27 03:08:41;;;;;;;29.80;14.95;;;0.10;69.90;;;;;;5073388;28;20020;-19
2022/01/27 03:11:12;;;;;;;47.80;24.02;;;0.10;69.70;;;;;;5073279;28;20480;-19
2022/01/27 03:13:40;;;;;;;62.25;31.83;;;0.20;69.40;;;;;;5073343;28;20484;-19
2022/01/27 03:16:08;;;;;;;27.70;13.35;;;0.20;69.60;;;;;;5073188;28;20020;-19
2022/01/27 03:18:34;;;;;;;42.35;23.85;;;0.20;69.40;;;;;;5073329;28;20077;-19
2022/01/27 03:21:00;;;;;;;78.07;41.25;;;0.20;69.40;;;;;;5072921;28;20399;-18
2022/01/27 03:23:26;;;;;;;34.30;17.38;;;0.20;69.70;;;;;;5073466;28;20520;-19
2022/01/27 03:25:52;;;;;;;39.15;19.40;;;0.10;69.40;;;;;;5073420;28;20477;-19
2022/01/27 03:28:20;;;;;;;50.90;28.58;;;0.10;69.30;;;;;;5072819;28;20029;-19
2022/01/27 03:30:45;;;;;;;33.30;15.85;;;0.10;69.40;;;;;;5072855;28;20385;-19
2022/01/27 03:33:11;;;;;;;37.13;18.00;;;0.00;69.20;;;;;;5073564;28;20028;-19
2022/01/27 03:35:37;;;;;;;18.65;10.05;;;0.00;69.10;;;;;;5073029;28;20104;-18
2022/01/27 03:38:03;;;;;;;46.75;21.27;;;0.00;69.10;;;;;;5072996;28;20074;-19
2022/01/27 03:40:29;;;;;;;24.88;11.13;;;0.00;69.20;;;;;;5072732;28;20035;-19
2022/01/27 03:43:04;;;;;;;32.25;15.27;;;0.00;69.10;;;;;;5072965;28;20366;-19
2022/01/27 03:45:30;;;;;;;54.65;28.73;;;0.00;69.10;;;;;;5073192;28;20029;-18
2022/01/27 03:47:57;;;;;;;20.90;10.18;;;0.00;69.20;;;;;;5072868;28;20493;-19
2022/01/27 03:50:23;;;;;;;33.70;17.60;;;0.00;69.30;;;;;;5072987;28;20029;-19
2022/01/27 03:52:49;;;;;;;41.88;20.75;;;0.00;69.30;;;;;;5072918;28;20025;-18
2022/01/27 03:55:16;;;;;;;79.40;35.10;;;0.00;69.40;;;;;;5073349;28;20101;-18
2022/01/27 03:57:43;;;;;;;48.13;22.80;;;-0.10;69.80;;;;;;5073097;28;20025;-19
2022/01/27 04:00:10;;;;;;;26.60;13.07;;;-0.10;69.90;;;;;;5072741;28;20032;-19
2022/01/27 04:02:40;;;;;;;28.60;12.20;;;0.00;69.90;;;;;;5072547;28;20024;-19
2022/01/27 04:05:07;;;;;;;25.77;12.25;;;0.00;69.70;;;;;;5072813;28;20490;-19
2022/01/27 04:07:33;;;;;;;89.45;35.60;;;0.00;69.50;;;;;;5073024;28;20112;-18
2022/01/27 04:09:59;;;;;;;54.28;22.08;;;0.00;69.50;;;;;;5072678;28;20166;-19
2022/01/27 04:12:25;;;;;;;51.92;19.48;;;0.00;69.90;;;;;;5072497;28;20032;-19
2022/01/27 04:14:51;;;;;;;76.30;28.27;;;0.00;69.60;;;;;;5071259;28;20024;-19
2022/01/27 04:17:17;;;;;;;38.03;16.83;;;0.00;69.70;;;;;;5072611;28;20119;-19
2022/01/27 04:19:43;;;;;;;63.50;23.77;;;0.00;69.60;;;;;;5072323;28;20128;-19
2022/01/27 04:22:09;;;;;;;53.35;25.15;;;0.00;69.50;;;;;;5072807;28;20021;-19
2022/01/27 04:24:35;;;;;;;117.07;46.47;;;-0.10;69.90;;;;;;5072438;28;20410;-19
2022/01/27 04:27:06;;;;;;;80.47;37.15;;;-0.10;69.70;;;;;;5072510;28;20020;-19
2022/01/27 04:29:35;;;;;;;36.97;14.18;;;-0.10;70.30;;;;;;5072464;28;20481;-19
2022/01/27 04:32:03;;;;;;;59.70;30.45;;;-0.10;69.90;;;;;;5072483;28;20021;-19
2022/01/27 04:34:31;;;;;;;53.60;25.17;;;-0.20;69.80;;;;;;5072161;28;20036;-20
2022/01/27 04:36:57;;;;;;;68.28;31.48;;;-0.20;69.90;;;;;;5072751;28;20131;-19
2022/01/27 04:39:37;;;;;;;55.33;24.90;;;-0.20;70.40;;;;;;5071480;28;20079;-19
2022/01/27 04:42:11;;;;;;;81.68;38.45;;;-0.30;70.20;;;;;;5075965;28;20427;-18
2022/01/27 04:44:46;;;;;;;51.65;25.75;;;-0.30;71.50;;;;;;5076262;28;20119;-19
2022/01/27 04:47:19;;;;;;;46.25;21.80;;;-0.40;71.30;;;;;;5076077;28;20048;-19
2022/01/27 04:49:46;;;;;;;78.55;38.75;;;-0.40;70.80;;;;;;5075967;28;20071;-19
2022/01/27 04:52:12;;;;;;;65.78;31.70;;;-0.40;70.90;;;;;;5075928;28;20020;-21
2022/01/27 04:54:52;;;;;;;91.90;43.42;;;-0.40;71.20;;;;;;5076102;28;20025;-19
2022/01/27 04:57:26;;;;;;;73.63;33.65;;;-0.40;71.80;;;;;;5094284;28;20052;-19
2022/01/27 04:59:52;;;;;;;82.28;36.65;;;-0.30;71.40;;;;;;5093754;28;20073;-19
2022/01/27 05:02:29;;;;;;;94.38;45.40;;;-0.30;71.50;;;;;;5093801;28;20040;-19
2022/01/27 05:04:55;;;;;;;80.63;37.53;;;-0.30;72.50;;;;;;5093759;28;20495;-19
2022/01/27 05:07:21;;;;;;;51.72;25.90;;;-0.30;72.10;;;;;;5093797;28;20032;-19
2022/01/27 05:09:56;;;;;;;29.55;15.07;;;-0.30;71.70;;;;;;5093921;28;20043;-19
2022/01/27 05:12:41;;;;;;;23.67;12.68;;;-0.30;71.10;;;;;;5093540;28;20032;-20
2022/01/27 05:15:08;;;;;;;31.42;15.68;;;-0.30;70.80;;;;;;5094005;28;20071;-19
2022/01/27 05:17:34;;;;;;;55.67;29.73;;;-0.30;70.60;;;;;;5093527;28;20134;-19
2022/01/27 05:20:00;;;;;;;67.93;31.15;;;-0.30;70.50;;;;;;5093228;28;20040;-19
2022/01/27 05:22:26;;;;;;;70.90;33.28;;;-0.30;70.60;;;;;;5093429;28;20450;-19
2022/01/27 05:24:52;;;;;;;53.83;23.65;;;-0.30;70.50;;;;;;5093451;28;20024;-19
2022/01/27 05:27:18;;;;;;;58.40;28.30;;;-0.30;70.60;;;;;;5093297;28;20565;-19
2022/01/27 05:29:44;;;;;;;83.05;39.08;;;-0.40;70.30;;;;;;5093220;28;20040;-19
2022/01/27 05:32:10;;;;;;;36.08;16.27;;;-0.40;70.80;;;;;;5093337;28;20056;-19
2022/01/27 05:34:35;;;;;;;77.90;34.85;;;-0.50;70.50;;;;;;5085589;28;20036;-19
2022/01/27 05:37:02;;;;;;;34.83;14.65;;;-0.50;70.40;;;;;;5073875;28;20017;-19
2022/01/27 05:39:28;;;;;;;65.35;29.98;;;-0.50;70.40;;;;;;5073792;28;20488;-19
2022/01/27 05:41:54;;;;;;;100.30;47.58;;;-0.60;70.80;;;;;;5074847;28;20171;-19
2022/01/27 05:44:20;;;;;;;34.25;16.77;;;-0.60;71.10;;;;;;5075117;28;20024;-19
2022/01/27 05:46:46;;;;;;;29.75;14.02;;;-0.60;71.10;;;;;;5075026;28;20123;-19
2022/01/27 05:49:12;;;;;;;67.82;35.85;;;-0.60;70.70;;;;;;5075104;28;20020;-19
2022/01/27 05:51:38;;;;;;;93.93;45.00;;;-0.60;70.70;;;;;;5074328;28;20024;-19
2022/01/27 05:54:04;;;;;;;30.38;15.90;;;-0.60;71.10;;;;;;5074737;28;20066;-19
2022/01/27 05:56:30;;;;;;;68.57;32.42;;;-0.60;70.70;;;;;;5074491;28;20028;-19
2022/01/27 05:58:56;;;;;;;87.30;45.25;;;-0.60;71.00;;;;;;5074533;28;20064;-19
2022/01/27 06:01:22;;;;;;;73.95;36.90;;;-0.60;71.20;;;;;;5074333;28;20040;-19
2022/01/27 06:03:47;;;;;;;37.83;18.98;;;-0.60;70.90;;;;;;5074825;28;20021;-19
2022/01/27 06:06:13;;;;;;;24.95;12.68;;;-0.60;70.70;;;;;;5074668;28;20422;-20
2022/01/27 06:08:40;;;;;;;35.75;16.83;;;-0.60;70.40;;;;;;5074452;28;20488;-19
2022/01/27 06:11:06;;;;;;;69.95;30.02;;;-0.60;70.40;;;;;;5074627;28;20024;-19
2022/01/27 06:13:32;;;;;;;61.60;28.58;;;-0.60;70.30;;;;;;5074228;28;20024;-19
2022/01/27 06:15:58;;;;;;;68.00;28.17;;;-0.60;70.60;;;;;;5074151;28;20115;-19
2022/01/27 06:18:24;;;;;;;30.95;13.15;;;-0.60;70.90;;;;;;5074060;28;20108;-19
2022/01/27 06:20:50;;;;;;;31.70;14.02;;;-0.60;70.50;;;;;;5073908;28;20033;-19
2022/01/27 06:23:16;;;;;;;39.15;17.05;;;-0.60;70.40;;;;;;5074400;28;20051;-19
2022/01/27 06:25:42;;;;;;;74.90;35.47;;;-0.60;70.30;;;;;;5074322;28;20551;-18
2022/01/27 06:28:08;;;;;;;67.55;32.33;;;-0.60;70.60;;;;;;5074246;28;20087;-19
2022/01/27 06:30:34;;;;;;;62.80;28.33;;;-0.60;70.70;;;;;;5072464;28;20020;-19
2022/01/27 06:33:05;;;;;;;82.93;37.53;;;-0.60;71.00;;;;;;5073866;28;20549;-19
2022/01/27 06:35:32;;;;;;;69.55;31.75;;;-0.70;70.90;;;;;;5073839;28;20032;-19
2022/01/27 06:37:58;;;;;;;52.70;25.02;;;-0.70;70.80;;;;;;5074194;28;20032;-20
2022/01/27 06:40:24;;;;;;;102.75;50.90;;;-0.70;70.80;;;;;;5055730;28;20074;-19
2022/01/27 06:42:50;;;;;;;73.82;34.15;;;-0.70;71.80;;;;;;5074015;28;20029;-19
2022/01/27 06:45:16;;;;;;;102.05;48.03;;;-0.60;71.70;;;;;;5073569;28;20092;-19
2022/01/27 06:47:42;;;;;;;100.07;45.53;;;-0.60;71.70;;;;;;5073952;28;20060;-19
2022/01/27 06:50:08;;;;;;;116.65;56.88;;;-0.60;72.90;;;;;;5073900;28;20024;-19
2022/01/27 06:52:35;;;;;;;111.43;50.42;;;-0.60;73.40;;;;;;5073683;28;20060;-19
2022/01/27 06:55:03;;;;;;;112.95;48.67;;;-0.50;73.60;;;;;;5073504;28;20033;-19
2022/01/27 06:57:29;;;;;;;101.30;44.03;;;-0.50;73.60;;;;;;5073819;28;20039;-19
2022/01/27 06:59:55;;;;;;;89.05;40.80;;;-0.50;73.50;;;;;;5073362;28;20024;-19
2022/01/27 07:02:21;;;;;;;63.63;30.05;;;-0.50;73.00;;;;;;5072795;28;20044;-19
2022/01/27 07:04:47;;;;;;;42.80;19.25;;;-0.50;72.40;;;;;;5074032;28;20416;-19
2022/01/27 07:07:13;;;;;;;82.93;38.22;;;-0.40;72.20;;;;;;5073330;28;20031;-18
2022/01/27 07:09:40;;;;;;;73.00;31.40;;;-0.40;72.10;;;;;;5073684;28;20034;-19
2022/01/27 07:12:06;;;;;;;64.10;29.00;;;-0.40;72.00;;;;;;5073610;28;20052;-19
2022/01/27 07:14:33;;;;;;;103.03;41.33;;;-0.30;71.70;;;;;;5073382;28;20048;-20
2022/01/27 07:17:00;;;;;;;73.43;30.52;;;-0.30;71.80;;;;;;5073144;28;20115;-19
2022/01/27 07:19:26;;;;;;;76.35;32.83;;;-0.30;72.50;;;;;;5072884;28;20500;-19
2022/01/27 07:21:52;;;;;;;145.50;46.28;;;-0.30;73.10;;;;;;5073119;28;20032;-20
2022/01/27 07:24:19;;;;;;;55.05;25.52;;;-0.20;72.60;;;;;;5072905;28;20493;-19
2022/01/27 07:26:46;;;;;;;35.47;16.85;;;-0.20;72.90;;;;;;5071908;28;20031;-20
2022/01/27 07:29:12;;;;;;;49.03;22.67;;;-0.10;72.70;;;;;;5072209;28;20035;-20
2022/01/27 07:31:39;;;;;;;63.03;26.70;;;-0.10;72.30;;;;;;5073218;28;20123;-19
2022/01/27 07:34:04;;;;;;;80.75;28.58;;;0.00;72.90;;;;;;5073182;28;20142;-19
2022/01/27 07:36:31;;;;;;;76.18;31.38;;;0.00;72.30;;;;;;5073143;28;20035;-19
2022/01/27 07:38:58;;;;;;;52.00;27.00;;;0.00;72.20;;;;;;5073302;28;20043;-19
2022/01/27 07:41:25;;;;;;;43.67;20.88;;;0.10;72.00;;;;;;5072807;28;20385;-19
2022/01/27 07:43:50;;;;;;;44.83;19.30;;;0.10;72.10;;;;;;5071726;28;20036;-20
2022/01/27 07:46:16;;;;;;;92.90;29.30;;;0.20;72.10;;;;;;5072923;28;20142;-19
2022/01/27 07:48:43;;;;;;;52.85;23.30;;;0.20;71.90;;;;;;5072943;28;20469;-20
2022/01/27 07:51:10;;;;;;;18.42;9.27;;;0.30;71.90;;;;;;5073186;28;20035;-19
2022/01/27 07:53:38;;;;;;;30.38;14.82;;;0.30;71.50;;;;;;5073199;28;20105;-19
2022/01/27 07:56:05;;;;;;;130.13;52.83;;;0.40;72.10;;;;;;5073154;28;20025;-19
2022/01/27 07:58:32;;;;;;;44.50;23.20;;;0.40;72.00;;;;;;5072882;28;20137;-20
2022/01/27 08:00:59;;;;;;;35.95;17.90;;;0.40;72.80;;;;;;5072608;28;20036;-19
2022/01/27 08:03:25;;;;;;;165.32;52.72;;;0.50;71.70;;;;;;5073094;28;20476;-19
2022/01/27 08:05:52;;;;;;;100.55;40.50;;;0.60;71.70;;;;;;5073064;28;20029;-18
2022/01/27 08:08:18;;;;;;;142.18;52.15;;;0.60;72.90;;;;;;5071291;28;20036;-19
2022/01/27 08:10:44;;;;;;;117.78;46.83;;;0.70;73.50;;;;;;5073430;28;20028;-19
2022/01/27 08:13:11;;;;;;;100.75;44.03;;;0.70;74.60;;;;;;5072936;28;20488;-19
2022/01/27 08:15:37;;;;;;;44.47;20.40;;;0.80;73.90;;;;;;5076799;28;20027;-19
2022/01/27 08:18:04;;;;;;;72.30;33.25;;;0.80;73.10;;;;;;5076508;28;20025;-19
2022/01/27 08:20:31;;;;;;;159.73;54.13;;;0.90;73.20;;;;;;5076084;28;20087;-19
2022/01/27 08:22:58;;;;;;;81.63;37.42;;;1.00;73.20;;;;;;5076393;28;20119;-19
2022/01/27 08:25:25;;;;;;;33.65;16.13;;;1.10;73.20;;;;;;5076663;28;20120;-19
2022/01/27 08:27:57;;;;;;;51.30;27.42;;;1.10;72.80;;;;;;5076598;28;20094;-19
2022/01/27 08:30:27;;;;;;;123.00;55.22;;;1.20;72.60;;;;;;5076262;28;20029;-19
2022/01/27 08:33:00;;;;;;;60.63;29.17;;;1.30;72.70;;;;;;5076169;28;20085;-18
2022/01/27 08:35:27;;;;;;;143.85;62.25;;;1.40;72.80;;;;;;5076511;28;20036;-19
2022/01/27 08:37:52;;;;;;;105.55;47.42;;;1.40;73.10;;;;;;5076128;28;20032;-19
2022/01/27 08:40:19;;;;;;;101.50;42.65;;;1.40;73.00;;;;;;5075763;28;20163;-20
2022/01/27 08:42:46;;;;;;;110.18;53.42;;;1.60;72.60;;;;;;5076652;28;20107;-19
2022/01/27 08:45:15;;;;;;;81.63;36.05;;;1.60;73.40;;;;;;5076097;28;20025;-19
2022/01/27 08:47:43;;;;;;;111.57;49.35;;;1.70;72.70;;;;;;5075925;28;20033;-19
2022/01/27 08:50:12;;;;;;;78.38;36.45;;;1.80;72.50;;;;;;5074733;28;20074;-19
2022/01/27 08:52:39;;;;;;;129.50;55.45;;;1.90;73.60;;;;;;5075857;28;20024;-19
2022/01/27 08:55:12;;;;;;;75.10;32.47;;;1.90;73.80;;;;;;5076149;28;20036;-19
2022/01/27 08:57:38;;;;;;;64.53;28.67;;;2.00;73.00;;;;;;5075769;28;20036;-19
2022/01/27 09:00:07;;;;;;;54.17;28.42;;;2.10;72.80;;;;;;5075948;28;20024;-19
2022/01/27 09:02:34;;;;;;;107.00;43.00;;;2.20;72.60;;;;;;5075358;28;20037;-19
2022/01/27 09:05:00;;;;;;;79.43;36.90;;;2.20;72.10;;;;;;5076118;28;20024;-20
2022/01/27 09:07:26;;;;;;;39.28;20.10;;;2.30;72.50;;;;;;5075604;28;20042;-19
2022/01/27 09:09:52;;;;;;;77.68;37.60;;;2.40;72.50;;;;;;5075562;28;20502;-19
2022/01/27 09:12:18;;;;;;;35.53;18.70;;;2.50;72.00;;;;;;5075420;28;20043;-19
2022/01/27 09:14:44;;;;;;;96.53;42.95;;;2.50;71.90;;;;;;5075771;28;20028;-20
2022/01/27 09:17:12;;;;;;;55.92;25.80;;;2.60;71.80;;;;;;5075672;28;20435;-19
2022/01/27 09:19:40;;;;;;;78.30;39.05;;;2.70;71.50;;;;;;5075321;28;20146;-20
2022/01/27 09:22:14;;;;;;;81.97;39.42;;;2.80;72.70;;;;;;5075627;28;20499;-20
2022/01/27 09:25:19;;;;;;;40.30;20.48;;;2.80;72.70;;;;;;5075374;28;20025;-19
2022/01/27 09:27:34;;;;;;;76.80;35.42;;;2.90;72.70;;;;;;5073107;28;20033;-20
2022/01/27 09:30:00;;;;;;;34.13;15.50;;;2.90;72.50;;;;;;5075253;28;20020;-20
2022/01/27 09:32:27;;;;;;;84.65;40.72;;;3.10;71.80;;;;;;5075262;28;20029;-20
2022/01/27 09:34:54;;;;;;;62.47;32.10;;;3.20;71.40;;;;;;5075110;28;20546;-20
2022/01/27 09:37:20;;;;;;;54.72;26.13;;;3.20;71.50;;;;;;5075379;28;20048;-19
2022/01/27 09:39:47;;;;;;;77.03;36.42;;;3.30;71.10;;;;;;5075000;28;20488;-20
2022/01/27 09:42:15;;;;;;;71.07;34.13;;;3.40;71.20;;;;;;5074673;28;20028;-19
2022/01/27 09:44:43;;;;;;;99.47;47.92;;;3.50;71.20;;;;;;5075243;28;20051;-20
2022/01/27 09:47:14;;;;;;;105.75;51.78;;;3.50;71.10;;;;;;5074682;28;20085;-20
2022/01/27 09:49:54;;;;;;;88.57;41.70;;;3.60;71.70;;;;;;5075099;28;20477;-20
2022/01/27 09:52:21;;;;;;;91.63;43.35;;;3.60;71.60;;;;;;5074560;28;20028;-20
2022/01/27 09:54:47;;;;;;;101.32;48.13;;;3.60;72.40;;;;;;5074697;28;20021;-20
2022/01/27 09:57:17;;;;;;;93.55;46.67;;;3.70;72.40;;;;;;5074940;28;20028;-20
2022/01/27 09:59:44;;;;;;;117.03;56.25;;;3.70;72.00;;;;;;5074898;28;20024;-20
2022/01/27 10:02:16;;;;;;;93.05;46.80;;;3.70;72.70;;;;;;5074391;28;20476;-20
2022/01/27 10:04:56;;;;;;;96.30;52.55;;;3.70;72.20;;;;;;5074495;28;20481;-21
2022/01/27 10:07:27;;;;;;;115.43;60.97;;;3.80;72.40;;;;;;5074801;28;20029;-20
2022/01/27 10:10:12;;;;;;;95.72;47.63;;;3.80;72.40;;;;;;5074693;28;20023;-20
2022/01/27 10:12:47;;;;;;;101.03;53.22;;;3.90;72.50;;;;;;5074330;28;20036;-20
2022/01/27 10:15:18;;;;;;;107.32;54.55;;;3.90;72.80;;;;;;5074341;28;20090;-20
2022/01/27 10:18:17;;;;;;;91.57;49.15;;;4.00;73.10;;;;;;5074263;28;20370;-20
2022/01/27 10:20:59;;;;;;;101.40;51.33;;;4.10;72.20;;;;;;5073951;28;20224;-20
2022/01/27 10:23:30;;;;;;;117.72;59.65;;;4.20;73.30;;;;;;5074495;28;20026;-20
2022/01/27 10:26:09;;;;;;;102.13;51.60;;;4.20;73.20;;;;;;5074102;28;20107;-20
2022/01/27 10:28:50;;;;;;;124.13;64.78;;;4.30;72.90;;;;;;5073913;28;20023;-20
2022/01/27 10:31:20;;;;;;;113.95;56.92;;;4.40;73.10;;;;;;5074248;28;20032;-20
2022/01/27 10:34:03;;;;;;;99.20;49.92;;;4.40;72.90;;;;;;5074286;28;20029;-20
2022/01/27 10:36:36;;;;;;;111.03;57.72;;;4.50;72.50;;;;;;5073390;28;20025;-21
2022/01/27 10:39:06;;;;;;;116.38;61.03;;;4.50;72.80;;;;;;5073274;28;20358;-20
2022/01/27 10:41:35;;;;;;;129.18;59.53;;;4.60;73.00;;;;;;5072472;28;20030;-20
2022/01/27 10:44:13;;;;;;;111.93;54.72;;;4.60;72.60;;;;;;5072521;28;20496;-20
2022/01/27 10:46:49;;;;;;;84.80;40.40;;;4.70;72.50;;;;;;5073648;28;20017;-20
2022/01/27 10:49:23;;;;;;;60.33;28.85;;;4.80;72.20;;;;;;5073669;28;20079;-20
2022/01/27 10:51:52;;;;;;;95.57;45.50;;;4.90;72.00;;;;;;5073727;28;20036;-20
2022/01/27 10:57:12;;;;;;;96.93;44.00;;;5.10;71.50;;;;;;5073598;28;20032;-20
2022/01/27 10:59:39;;;;;;;103.35;48.97;;;5.30;71.90;;;;;;5073535;28;20021;-20
2022/01/27 11:02:08;;;;;;;96.00;43.72;;;5.40;72.30;;;;;;5073527;28;20059;-20
2022/01/27 11:04:41;;;;;;;66.00;33.85;;;5.40;72.10;;;;;;5073303;28;20551;-20
2022/01/27 11:07:10;;;;;;;101.50;47.50;;;5.50;71.60;;;;;;5074125;28;20013;-20
2022/01/27 11:09:40;;;;;;;100.63;46.35;;;5.50;71.90;;;;;;5073584;28;20036;-20
2022/01/27 11:12:11;;;;;;;102.68;49.03;;;5.60;71.90;;;;;;5074171;28;20039;-20
2022/01/27 11:14:39;;;;;;;98.93;44.25;;;5.60;71.60;;;;;;5073343;28;20162;-20
2022/01/27 11:17:07;;;;;;;92.20;41.47;;;5.70;71.40;;;;;;5073121;28;20499;-20
2022/01/27 11:22:08;;;;;;;105.03;49.72;;;5.70;71.70;;;;;;5073517;28;20036;-20
2022/01/27 11:27:23;;;;;;;80.80;39.45;;;5.70;71.80;;;;;;5073812;28;20036;-20
2022/01/27 11:30:11;;;;;;;75.13;35.75;;;5.80;71.40;;;;;;5073411;28;20025;-20
2022/01/27 11:33:02;;;;;;;96.13;42.80;;;5.80;71.00;;;;;;5051021;28;20036;-20
2022/01/27 11:35:28;;;;;;;108.25;49.22;;;5.90;71.20;;;;;;5037529;28;20025;-20
2022/01/27 11:37:56;;;;;;;104.07;46.25;;;5.90;70.90;;;;;;5051435;28;20029;-21
2022/01/27 11:40:37;;;;;;;96.25;42.40;;;6.00;71.00;;;;;;5050526;28;20029;-20
2022/01/27 11:43:07;;;;;;;109.00;46.08;;;6.10;70.90;;;;;;5051155;28;20094;-20
2022/01/27 11:45:37;;;;;;;83.95;38.05;;;6.20;71.10;;;;;;5051145;28;20086;-21
2022/01/27 11:48:10;;;;;;;84.97;38.58;;;6.30;70.60;;;;;;5051006;28;20393;-20
2022/01/27 11:50:59;;;;;;;97.10;41.25;;;6.30;70.50;;;;;;5054885;28;20056;-20
2022/01/27 11:53:36;;;;;;;86.43;39.75;;;6.40;70.40;;;;;;5055018;28;20035;-20
2022/01/27 11:56:08;;;;;;;61.10;27.27;;;6.50;70.30;;;;;;5054888;28;20036;-20
2022/01/27 11:58:46;;;;;;;82.70;38.60;;;6.60;70.00;;;;;;5054611;28;20036;-20
2022/01/27 12:01:14;;;;;;;83.40;36.30;;;6.70;69.80;;;;;;5054609;28;20036;-20
2022/01/27 12:04:06;;;;;;;118.68;52.58;;;6.80;70.00;;;;;;5054565;28;20044;-20
2022/01/27 12:06:33;;;;;;;87.55;41.42;;;6.90;69.60;;;;;;5054539;28;20501;-20
2022/01/27 12:09:20;;;;;;;106.18;48.13;;;7.00;69.50;;;;;;5059729;28;20032;-20
2022/01/27 12:11:58;;;;;;;61.20;25.27;;;7.00;69.20;;;;;;5077156;28;20098;-20
2022/01/27 12:14:28;;;;;;;55.10;26.55;;;7.10;69.10;;;;;;5076449;28;20024;-20
2022/01/27 12:17:10;;;;;;;76.13;36.00;;;7.20;68.90;;;;;;5077204;28;20024;-21
2022/01/27 12:20:08;;;;;;;75.95;34.58;;;7.30;68.90;;;;;;5076259;28;20539;-20
2022/01/27 12:22:44;;;;;;;71.15;31.38;;;7.30;68.70;;;;;;5071723;28;20036;-20
2022/01/27 12:25:12;;;;;;;62.55;29.00;;;7.40;68.50;;;;;;5076758;28;20103;-20
2022/01/27 12:27:41;;;;;;;98.25;42.65;;;7.50;68.40;;;;;;5076550;28;20396;-20
2022/01/27 12:30:13;;;;;;;64.22;29.17;;;7.50;68.30;;;;;;5076550;28;20028;-20
2022/01/27 12:32:40;;;;;;;53.85;23.75;;;7.60;68.00;;;;;;5076613;28;20414;-20
2022/01/27 12:35:12;;;;;;;70.35;31.95;;;7.60;68.00;;;;;;5076547;28;20040;-20
2022/01/27 12:37:42;;;;;;;62.70;29.90;;;7.70;67.90;;;;;;5076209;28;20082;-20
2022/01/27 12:40:16;;;;;;;55.45;25.38;;;7.70;67.90;;;;;;5076438;28;20075;-20
2022/01/27 12:42:58;;;;;;;81.70;36.70;;;7.80;67.80;;;;;;5076335;28;20032;-20
2022/01/27 12:45:29;;;;;;;54.22;23.40;;;7.80;67.70;;;;;;5075982;28;20025;-20
2022/01/27 12:47:57;;;;;;;64.55;28.23;;;7.90;67.70;;;;;;5076622;28;20025;-20
2022/01/27 12:50:25;;;;;;;47.03;20.45;;;7.90;67.60;;;;;;5075735;28;20024;-21
2022/01/27 12:52:57;;;;;;;76.60;35.72;;;8.00;67.50;;;;;;5076217;28;20032;-20
2022/01/27 12:55:30;;;;;;;88.95;38.45;;;8.10;67.10;;;;;;5076242;28;20029;-20
2022/01/27 12:58:00;;;;;;;52.15;24.00;;;8.20;67.00;;;;;;5076161;28;20032;-20
2022/01/27 13:00:31;;;;;;;74.72;35.03;;;8.20;66.90;;;;;;5074295;28;20129;-20
2022/01/27 13:03:01;;;;;;;69.70;30.67;;;8.30;66.80;;;;;;5076024;28;20384;-20
2022/01/27 13:05:36;;;;;;;61.75;29.42;;;8.40;66.70;;;;;;5076304;28;20147;-20
2022/01/27 13:08:09;;;;;;;50.88;23.00;;;8.40;66.60;;;;;;5076458;28;20025;-21
2022/01/27 13:10:44;;;;;;;51.72;22.05;;;8.50;66.50;;;;;;5075728;28;20488;-20
2022/01/27 13:13:18;;;;;;;72.85;31.17;;;8.60;66.50;;;;;;5075884;28;20028;-21
2022/01/27 13:15:45;;;;;;;52.08;22.33;;;8.60;66.10;;;;;;5075446;28;20024;-20
2022/01/27 13:18:26;;;;;;;48.20;19.85;;;8.70;66.20;;;;;;5075438;28;20029;-21
2022/01/27 13:20:55;;;;;;;49.42;21.63;;;8.80;66.10;;;;;;5075168;28;20053;-20
2022/01/27 13:26:01;;;;;;;61.50;27.20;;;8.90;65.60;;;;;;5075369;28;20064;-20
2022/01/27 13:28:32;;;;;;;51.63;23.08;;;9.00;65.60;;;;;;5075459;28;20025;-20
2022/01/27 13:31:04;;;;;;;44.95;19.27;;;9.10;65.50;;;;;;5075204;28;20035;-20